sensor_id;sensor_type;location;lat;lon;timestamp;pressure;altitude;pressure_sealevel;temperature;humidity
57948;BME280;43754;56.992;24.292;2022-07-19T00:01:31;101704.91;;;15.84;100.00
57948;BME280;43754;56.992;24.292;2022-07-19T00:04:04;101709.19;;;15.78;100.00
57948;BME280;43754;56.992;24.292;2022-07-19T00:06:36;101714.38;;;15.73;100.00
57948;BME280;43754;56.992;24.292;2022-07-19T00:09:10;101720.13;;;15.70;100.00
57948;BME280;43754;56.992;24.292;2022-07-19T00:11:42;101716.22;;;15.73;100.00
57948;BME280;43754;56.992;24.292;2022-07-19T00:14:14;101715.94;;;15.68;100.00
57948;BME280;43754;56.992;24.292;2022-07-19T00:16:46;101716.34;;;15.64;100.00
57948;BME280;43754;56.992;24.292;2022-07-19T00:19:18;101711.94;;;15.63;100.00
57948;BME280;43754;56.992;24.292;2022-07-19T00:21:50;101706.53;;;15.63;100.00
57948;BME280;43754;56.992;24.292;2022-07-19T00:24:24;101710.94;;;15.64;100.00
57948;BME280;43754;56.992;24.292;2022-07-19T00:26:56;101719.03;;;15.64;100.00
57948;BME280;43754;56.992;24.292;2022-07-19T00:29:28;101710.66;;;15.59;100.00
57948;BME280;43754;56.992;24.292;2022-07-19T00:32:00;101717.47;;;15.55;100.00
57948;BME280;43754;56.992;24.292;2022-07-19T00:34:32;101718.03;;;15.51;100.00
57948;BME280;43754;56.992;24.292;2022-07-19T00:37:04;101713.16;;;15.46;100.00
57948;BME280;43754;56.992;24.292;2022-07-19T00:39:37;101715.41;;;15.43;100.00
57948;BME280;43754;56.992;24.292;2022-07-19T00:42:10;101717.81;;;15.38;100.00
57948;BME280;43754;56.992;24.292;2022-07-19T00:44:42;101716.91;;;15.31;100.00
57948;BME280;43754;56.992;24.292;2022-07-19T00:47:14;101713.34;;;15.30;100.00
57948;BME280;43754;56.992;24.292;2022-07-19T00:49:47;101713.75;;;15.27;100.00
57948;BME280;43754;56.992;24.292;2022-07-19T00:52:20;101711.13;;;15.19;100.00
57948;BME280;43754;56.992;24.292;2022-07-19T00:54:54;101704.97;;;15.10;100.00
57948;BME280;43754;56.992;24.292;2022-07-19T00:57:27;101700.97;;;15.06;100.00
57948;BME280;43754;56.992;24.292;2022-07-19T00:59:59;101701.63;;;15.08;100.00
57948;BME280;43754;56.992;24.292;2022-07-19T01:02:32;101704.03;;;15.03;100.00
57948;BME280;43754;56.992;24.292;2022-07-19T01:05:07;101700.13;;;15.06;100.00
57948;BME280;43754;56.992;24.292;2022-07-19T01:07:39;101704.69;;;15.05;100.00
57948;BME280;43754;56.992;24.292;2022-07-19T01:10:14;101699.47;;;15.04;100.00
57948;BME280;43754;56.992;24.292;2022-07-19T01:12:46;101702.06;;;15.12;100.00
57948;BME280;43754;56.992;24.292;2022-07-19T01:15:21;101697.72;;;15.11;100.00
57948;BME280;43754;56.992;24.292;2022-07-19T01:17:54;101702.28;;;15.10;100.00
57948;BME280;43754;56.992;24.292;2022-07-19T01:20:26;101698.44;;;15.19;100.00
57948;BME280;43754;56.992;24.292;2022-07-19T01:23:03;101697.63;;;15.19;100.00
57948;BME280;43754;56.992;24.292;2022-07-19T01:25:36;101696.69;;;15.12;100.00
57948;BME280;43754;56.992;24.292;2022-07-19T01:28:09;101693.34;;;15.10;100.00
57948;BME280;43754;56.992;24.292;2022-07-19T01:30:41;101691.84;;;15.07;100.00
57948;BME280;43754;56.992;24.292;2022-07-19T01:33:13;101695.03;;;15.11;100.00
57948;BME280;43754;56.992;24.292;2022-07-19T01:35:45;101700.88;;;15.14;100.00
57948;BME280;43754;56.992;24.292;2022-07-19T01:38:18;101698.53;;;15.11;100.00
57948;BME280;43754;56.992;24.292;2022-07-19T01:40:50;101699.84;;;15.15;100.00
57948;BME280;43754;56.992;24.292;2022-07-19T01:43:22;101696.88;;;15.25;100.00
57948;BME280;43754;56.992;24.292;2022-07-19T01:45:55;101696.69;;;15.27;100.00
57948;BME280;43754;56.992;24.292;2022-07-19T01:48:27;101694.63;;;15.29;100.00
57948;BME280;43754;56.992;24.292;2022-07-19T01:51:00;101693.44;;;15.31;100.00
57948;BME280;43754;56.992;24.292;2022-07-19T01:53:34;101697.78;;;15.32;100.00
57948;BME280;43754;56.992;24.292;2022-07-19T01:56:06;101699.47;;;15.33;100.00
57948;BME280;43754;56.992;24.292;2022-07-19T01:58:39;101698.44;;;15.34;100.00
57948;BME280;43754;56.992;24.292;2022-07-19T02:01:11;101700.69;;;15.31;100.00
57948;BME280;43754;56.992;24.292;2022-07-19T02:03:43;101704.41;;;15.30;100.00
57948;BME280;43754;56.992;24.292;2022-07-19T02:06:15;101700.78;;;15.23;100.00
57948;BME280;43754;56.992;24.292;2022-07-19T02:08:48;101707.84;;;15.38;100.00
57948;BME280;43754;56.992;24.292;2022-07-19T02:11:20;101713.16;;;15.46;100.00
57948;BME280;43754;56.992;24.292;2022-07-19T02:14:08;101712.97;;;15.62;100.00
57948;BME280;43754;56.992;24.292;2022-07-19T02:16:41;101719.50;;;15.68;100.00
57948;BME280;43754;56.992;24.292;2022-07-19T02:19:14;101719.31;;;15.70;100.00
57948;BME280;43754;56.992;24.292;2022-07-19T02:21:47;101721.63;;;15.73;100.00
57948;BME280;43754;56.992;24.292;2022-07-19T02:24:20;101715.84;;;15.76;100.00
57948;BME280;43754;56.992;24.292;2022-07-19T02:26:52;101712.13;;;15.77;100.00
57948;BME280;43754;56.992;24.292;2022-07-19T02:29:24;101709.59;;;15.75;100.00
57948;BME280;43754;56.992;24.292;2022-07-19T02:31:56;101708.28;;;15.86;100.00
57948;BME280;43754;56.992;24.292;2022-07-19T02:34:29;101710.28;;;15.98;100.00
57948;BME280;43754;56.992;24.292;2022-07-19T02:37:01;101703.69;;;16.07;100.00
57948;BME280;43754;56.992;24.292;2022-07-19T02:39:34;101706.34;;;16.01;100.00
57948;BME280;43754;56.992;24.292;2022-07-19T02:42:06;101693.66;;;16.01;100.00
57948;BME280;43754;56.992;24.292;2022-07-19T02:44:38;101696.09;;;15.96;100.00
57948;BME280;43754;56.992;24.292;2022-07-19T02:47:10;101691.53;;;15.97;100.00
57948;BME280;43754;56.992;24.292;2022-07-19T02:49:42;101697.22;;;16.02;100.00
57948;BME280;43754;56.992;24.292;2022-07-19T02:52:15;101702.81;;;16.00;100.00
57948;BME280;43754;56.992;24.292;2022-07-19T02:54:48;101698.69;;;16.04;100.00
57948;BME280;43754;56.992;24.292;2022-07-19T02:57:20;101691.47;;;16.11;100.00
57948;BME280;43754;56.992;24.292;2022-07-19T02:59:52;101700.88;;;16.16;100.00
57948;BME280;43754;56.992;24.292;2022-07-19T03:02:24;101703.56;;;16.16;100.00
57948;BME280;43754;56.992;24.292;2022-07-19T03:04:56;101698.25;;;16.22;100.00
57948;BME280;43754;56.992;24.292;2022-07-19T03:07:29;101698.88;;;16.24;100.00
57948;BME280;43754;56.992;24.292;2022-07-19T03:10:03;101702.09;;;16.34;100.00
57948;BME280;43754;56.992;24.292;2022-07-19T03:12:35;101698.28;;;16.29;100.00
57948;BME280;43754;56.992;24.292;2022-07-19T03:15:08;101696.03;;;16.32;100.00
57948;BME280;43754;56.992;24.292;2022-07-19T03:17:40;101697.09;;;16.31;100.00
57948;BME280;43754;56.992;24.292;2022-07-19T03:20:12;101695.00;;;16.33;100.00
57948;BME280;43754;56.992;24.292;2022-07-19T03:22:44;101699.66;;;16.39;100.00
57948;BME280;43754;56.992;24.292;2022-07-19T03:25:18;101700.81;;;16.51;100.00
57948;BME280;43754;56.992;24.292;2022-07-19T03:27:50;101697.44;;;16.49;100.00
57948;BME280;43754;56.992;24.292;2022-07-19T03:30:22;101685.84;;;16.55;100.00
57948;BME280;43754;56.992;24.292;2022-07-19T03:32:54;101688.44;;;16.64;100.00
57948;BME280;43754;56.992;24.292;2022-07-19T03:35:27;101697.19;;;16.66;100.00
57948;BME280;43754;56.992;24.292;2022-07-19T03:37:59;101696.59;;;16.70;100.00
57948;BME280;43754;56.992;24.292;2022-07-19T03:40:32;101703.91;;;16.70;100.00
57948;BME280;43754;56.992;24.292;2022-07-19T03:43:05;101695.78;;;16.70;100.00
57948;BME280;43754;56.992;24.292;2022-07-19T03:45:37;101700.97;;;16.71;100.00
57948;BME280;43754;56.992;24.292;2022-07-19T03:48:09;101700.13;;;16.71;100.00
57948;BME280;43754;56.992;24.292;2022-07-19T03:50:41;101695.16;;;16.74;100.00
57948;BME280;43754;56.992;24.292;2022-07-19T03:53:13;101693.56;;;16.80;100.00
57948;BME280;43754;56.992;24.292;2022-07-19T03:55:46;101689.38;;;16.77;100.00
57948;BME280;43754;56.992;24.292;2022-07-19T03:58:19;101696.91;;;16.82;100.00
57948;BME280;43754;56.992;24.292;2022-07-19T04:00:51;101700.50;;;16.89;100.00
57948;BME280;43754;56.992;24.292;2022-07-19T04:03:23;101693.16;;;16.83;100.00
57948;BME280;43754;56.992;24.292;2022-07-19T04:05:56;101695.06;;;16.89;100.00
57948;BME280;43754;56.992;24.292;2022-07-19T04:08:28;101697.38;;;16.92;100.00
57948;BME280;43754;56.992;24.292;2022-07-19T04:11:09;101706.00;;;17.02;100.00
57948;BME280;43754;56.992;24.292;2022-07-19T04:13:41;101701.88;;;17.13;100.00
57948;BME280;43754;56.992;24.292;2022-07-19T04:16:13;101702.38;;;17.23;100.00
57948;BME280;43754;56.992;24.292;2022-07-19T04:18:45;101696.19;;;17.35;100.00
57948;BME280;43754;56.992;24.292;2022-07-19T04:21:17;101696.84;;;17.44;100.00
57948;BME280;43754;56.992;24.292;2022-07-19T04:23:49;101699.75;;;17.42;100.00
57948;BME280;43754;56.992;24.292;2022-07-19T04:26:23;101698.31;;;17.46;100.00
57948;BME280;43754;56.992;24.292;2022-07-19T04:28:55;101701.50;;;17.57;100.00
57948;BME280;43754;56.992;24.292;2022-07-19T04:31:27;101696.56;;;17.67;100.00
57948;BME280;43754;56.992;24.292;2022-07-19T04:33:59;101692.63;;;17.76;100.00
57948;BME280;43754;56.992;24.292;2022-07-19T04:36:31;101691.63;;;17.97;100.00
57948;BME280;43754;56.992;24.292;2022-07-19T04:39:04;101682.50;;;18.17;100.00
57948;BME280;43754;56.992;24.292;2022-07-19T04:41:37;101685.44;;;18.35;100.00
57948;BME280;43754;56.992;24.292;2022-07-19T04:44:09;101683.56;;;18.43;100.00
57948;BME280;43754;56.992;24.292;2022-07-19T04:46:41;101682.31;;;18.52;99.79
57948;BME280;43754;56.992;24.292;2022-07-19T04:49:18;101677.09;;;18.63;98.87
57948;BME280;43754;56.992;24.292;2022-07-19T04:51:50;101673.34;;;18.77;98.61
57948;BME280;43754;56.992;24.292;2022-07-19T04:54:22;101672.88;;;18.87;98.18
57948;BME280;43754;56.992;24.292;2022-07-19T04:56:56;101675.78;;;19.05;96.59
57948;BME280;43754;56.992;24.292;2022-07-19T04:59:28;101670.31;;;19.18;96.31
57948;BME280;43754;56.992;24.292;2022-07-19T05:02:00;101665.66;;;19.39;94.28
57948;BME280;43754;56.992;24.292;2022-07-19T05:04:32;101672.13;;;19.38;94.80
57948;BME280;43754;56.992;24.292;2022-07-19T05:07:04;101676.31;;;19.34;94.95
57948;BME280;43754;56.992;24.292;2022-07-19T05:09:37;101678.00;;;19.35;94.85
57948;BME280;43754;56.992;24.292;2022-07-19T05:12:10;101673.44;;;19.28;95.18
57948;BME280;43754;56.992;24.292;2022-07-19T05:14:42;101663.56;;;19.41;93.96
57948;BME280;43754;56.992;24.292;2022-07-19T05:17:15;101669.19;;;19.46;93.99
57948;BME280;43754;56.992;24.292;2022-07-19T05:19:47;101683.97;;;19.63;93.70
57948;BME280;43754;56.992;24.292;2022-07-19T05:22:19;101695.94;;;19.62;93.39
57948;BME280;43754;56.992;24.292;2022-07-19T05:24:52;101686.16;;;19.35;94.16
57948;BME280;43754;56.992;24.292;2022-07-19T05:27:25;101694.50;;;19.53;94.01
57948;BME280;43754;56.992;24.292;2022-07-19T05:29:57;101689.84;;;19.60;93.99
57948;BME280;43754;56.992;24.292;2022-07-19T05:32:29;101684.84;;;19.57;93.87
57948;BME280;43754;56.992;24.292;2022-07-19T05:35:02;101683.19;;;19.56;93.71
57948;BME280;43754;56.992;24.292;2022-07-19T05:37:34;101679.59;;;19.62;93.08
57948;BME280;43754;56.992;24.292;2022-07-19T05:40:07;101682.09;;;19.63;92.47
57948;BME280;43754;56.992;24.292;2022-07-19T05:42:41;101685.25;;;19.54;92.80
57948;BME280;43754;56.992;24.292;2022-07-19T05:45:13;101684.06;;;19.43;93.61
57948;BME280;43754;56.992;24.292;2022-07-19T05:47:45;101674.44;;;19.41;93.70
57948;BME280;43754;56.992;24.292;2022-07-19T05:50:17;101671.09;;;19.39;94.07
57948;BME280;43754;56.992;24.292;2022-07-19T05:52:49;101669.84;;;19.41;94.10
57948;BME280;43754;56.992;24.292;2022-07-19T05:55:22;101672.75;;;19.40;94.35
57948;BME280;43754;56.992;24.292;2022-07-19T05:57:55;101673.88;;;19.19;94.90
57948;BME280;43754;56.992;24.292;2022-07-19T06:00:27;101674.72;;;19.19;95.09
57948;BME280;43754;56.992;24.292;2022-07-19T06:02:59;101681.22;;;19.12;95.50
57948;BME280;43754;56.992;24.292;2022-07-19T06:05:31;101672.41;;;19.16;95.30
57948;BME280;43754;56.992;24.292;2022-07-19T06:08:04;101671.66;;;19.54;94.60
57948;BME280;43754;56.992;24.292;2022-07-19T06:10:36;101669.97;;;19.97;92.69
57948;BME280;43754;56.992;24.292;2022-07-19T06:13:09;101666.94;;;20.43;90.56
57948;BME280;43754;56.992;24.292;2022-07-19T06:15:42;101667.97;;;20.49;89.67
57948;BME280;43754;56.992;24.292;2022-07-19T06:18:14;101668.16;;;20.47;89.61
57948;BME280;43754;56.992;24.292;2022-07-19T06:20:46;101672.59;;;20.42;89.75
57948;BME280;43754;56.992;24.292;2022-07-19T06:23:18;101657.41;;;20.28;90.17
57948;BME280;43754;56.992;24.292;2022-07-19T06:25:51;101659.44;;;20.39;90.36
57948;BME280;43754;56.992;24.292;2022-07-19T06:28:25;101663.91;;;20.58;89.45
57948;BME280;43754;56.992;24.292;2022-07-19T06:30:57;101655.16;;;20.92;87.86
57948;BME280;43754;56.992;24.292;2022-07-19T06:33:29;101660.81;;;21.16;86.17
57948;BME280;43754;56.992;24.292;2022-07-19T06:36:01;101664.81;;;21.49;84.78
57948;BME280;43754;56.992;24.292;2022-07-19T06:38:34;101663.03;;;21.55;83.70
57948;BME280;43754;56.992;24.292;2022-07-19T06:41:06;101654.91;;;21.67;83.12
57948;BME280;43754;56.992;24.292;2022-07-19T06:43:40;101661.13;;;21.74;82.36
57948;BME280;43754;56.992;24.292;2022-07-19T06:46:12;101651.22;;;21.91;81.37
57948;BME280;43754;56.992;24.292;2022-07-19T06:51:16;101664.88;;;22.21;80.71
57948;BME280;43754;56.992;24.292;2022-07-19T06:53:48;101668.06;;;22.18;80.45
57948;BME280;43754;56.992;24.292;2022-07-19T06:56:21;101662.94;;;22.10;80.86
57948;BME280;43754;56.992;24.292;2022-07-19T06:58:54;101658.72;;;22.48;80.73
57948;BME280;43754;56.992;24.292;2022-07-19T07:01:26;101664.84;;;22.74;77.95
57948;BME280;43754;56.992;24.292;2022-07-19T07:03:59;101660.09;;;22.69;77.46
57948;BME280;43754;56.992;24.292;2022-07-19T07:06:31;101651.50;;;22.54;78.75
57948;BME280;43754;56.992;24.292;2022-07-19T07:09:03;101653.97;;;22.44;79.41
57948;BME280;43754;56.992;24.292;2022-07-19T07:11:35;101655.25;;;22.30;80.59
57948;BME280;43754;56.992;24.292;2022-07-19T07:14:10;101650.97;;;22.22;80.39
57948;BME280;43754;56.992;24.292;2022-07-19T07:16:42;101666.47;;;21.98;81.57
57948;BME280;43754;56.992;24.292;2022-07-19T07:19:14;101664.72;;;21.86;81.40
57948;BME280;43754;56.992;24.292;2022-07-19T07:21:46;101663.59;;;21.75;81.76
57948;BME280;43754;56.992;24.292;2022-07-19T07:24:18;101667.09;;;21.34;83.30
57948;BME280;43754;56.992;24.292;2022-07-19T07:26:51;101658.84;;;21.41;83.45
57948;BME280;43754;56.992;24.292;2022-07-19T07:29:24;101661.78;;;21.58;84.48
57948;BME280;43754;56.992;24.292;2022-07-19T07:31:56;101653.84;;;21.68;84.79
57948;BME280;43754;56.992;24.292;2022-07-19T07:34:29;101654.50;;;21.81;83.29
57948;BME280;43754;56.992;24.292;2022-07-19T07:37:07;101650.34;;;21.79;82.83
57948;BME280;43754;56.992;24.292;2022-07-19T07:39:39;101658.34;;;21.92;83.04
57948;BME280;43754;56.992;24.292;2022-07-19T07:42:11;101656.25;;;21.94;82.86
57948;BME280;43754;56.992;24.292;2022-07-19T07:44:45;101647.44;;;22.33;82.50
57948;BME280;43754;56.992;24.292;2022-07-19T07:47:17;101657.06;;;22.59;80.53
57948;BME280;43754;56.992;24.292;2022-07-19T07:49:49;101649.25;;;22.98;79.13
57948;BME280;43754;56.992;24.292;2022-07-19T07:52:22;101646.44;;;23.32;76.70
57948;BME280;43754;56.992;24.292;2022-07-19T07:54:55;101646.72;;;23.71;75.64
57948;BME280;43754;56.992;24.292;2022-07-19T07:57:47;101636.56;;;24.00;74.96
57948;BME280;43754;56.992;24.292;2022-07-19T08:00:21;101626.53;;;24.22;73.99
57948;BME280;43754;56.992;24.292;2022-07-19T08:02:53;101632.94;;;24.27;73.17
57948;BME280;43754;56.992;24.292;2022-07-19T08:05:25;101640.47;;;24.04;74.49
57948;BME280;43754;56.992;24.292;2022-07-19T08:07:58;101643.25;;;23.92;75.12
57948;BME280;43754;56.992;24.292;2022-07-19T08:10:31;101639.97;;;24.07;73.47
57948;BME280;43754;56.992;24.292;2022-07-19T08:13:04;101638.97;;;24.13;73.44
57948;BME280;43754;56.992;24.292;2022-07-19T08:15:40;101641.56;;;24.69;71.05
57948;BME280;43754;56.992;24.292;2022-07-19T08:18:12;101645.78;;;24.94;69.30
57948;BME280;43754;56.992;24.292;2022-07-19T08:20:45;101650.91;;;25.07;69.33
57948;BME280;43754;56.992;24.292;2022-07-19T08:23:17;101638.19;;;25.44;67.82
57948;BME280;43754;56.992;24.292;2022-07-19T08:25:49;101648.00;;;25.57;66.90
57948;BME280;43754;56.992;24.292;2022-07-19T08:28:21;101647.56;;;25.48;67.40
57948;BME280;43754;56.992;24.292;2022-07-19T08:30:54;101650.00;;;25.23;67.99
57948;BME280;43754;56.992;24.292;2022-07-19T08:33:43;101644.72;;;25.60;66.23
57948;BME280;43754;56.992;24.292;2022-07-19T08:36:16;101639.72;;;25.35;66.86
57948;BME280;43754;56.992;24.292;2022-07-19T08:38:48;101641.72;;;25.18;66.57
57948;BME280;43754;56.992;24.292;2022-07-19T08:41:20;101639.19;;;25.33;66.31
57948;BME280;43754;56.992;24.292;2022-07-19T08:43:53;101642.59;;;25.02;67.83
57948;BME280;43754;56.992;24.292;2022-07-19T08:46:26;101644.78;;;25.00;66.39
57948;BME280;43754;56.992;24.292;2022-07-19T08:48:59;101640.50;;;25.09;66.22
57948;BME280;43754;56.992;24.292;2022-07-19T08:51:31;101638.97;;;24.96;66.74
57948;BME280;43754;56.992;24.292;2022-07-19T08:54:04;101644.91;;;25.10;67.30
57948;BME280;43754;56.992;24.292;2022-07-19T08:56:36;101636.59;;;25.27;67.52
57948;BME280;43754;56.992;24.292;2022-07-19T08:59:27;101630.03;;;25.06;66.29
57948;BME280;43754;56.992;24.292;2022-07-19T09:02:00;101640.31;;;25.15;66.58
57948;BME280;43754;56.992;24.292;2022-07-19T09:04:33;101631.34;;;24.65;67.10
57948;BME280;43754;56.992;24.292;2022-07-19T09:07:05;101626.78;;;24.70;66.92
57948;BME280;43754;56.992;24.292;2022-07-19T09:09:37;101631.44;;;24.70;67.41
57948;BME280;43754;56.992;24.292;2022-07-19T09:12:09;101625.50;;;24.95;66.16
57948;BME280;43754;56.992;24.292;2022-07-19T09:14:53;101623.66;;;25.22;66.79
57948;BME280;43754;56.992;24.292;2022-07-19T09:17:28;101624.16;;;25.41;65.50
57948;BME280;43754;56.992;24.292;2022-07-19T09:20:01;101617.56;;;25.63;65.13
57948;BME280;43754;56.992;24.292;2022-07-19T09:22:33;101616.91;;;26.10;63.91
57948;BME280;43754;56.992;24.292;2022-07-19T09:25:06;101606.84;;;25.89;63.48
57948;BME280;43754;56.992;24.292;2022-07-19T09:27:38;101613.75;;;25.43;64.33
57948;BME280;43754;56.992;24.292;2022-07-19T09:30:31;101609.31;;;25.15;66.17
57948;BME280;43754;56.992;24.292;2022-07-19T09:33:14;101613.78;;;25.21;66.51
57948;BME280;43754;56.992;24.292;2022-07-19T09:35:48;101614.09;;;25.51;65.33
57948;BME280;43754;56.992;24.292;2022-07-19T09:38:23;101602.03;;;25.26;64.96
57948;BME280;43754;56.992;24.292;2022-07-19T09:41:09;101602.22;;;24.97;65.15
57948;BME280;43754;56.992;24.292;2022-07-19T09:43:53;101599.06;;;24.89;64.67
57948;BME280;43754;56.992;24.292;2022-07-19T09:46:29;101598.41;;;24.82;65.90
57948;BME280;43754;56.992;24.292;2022-07-19T09:49:07;101592.91;;;24.82;66.55
57948;BME280;43754;56.992;24.292;2022-07-19T09:51:41;101595.50;;;24.71;66.88
57948;BME280;43754;56.992;24.292;2022-07-19T09:54:15;101601.94;;;24.60;66.90
57948;BME280;43754;56.992;24.292;2022-07-19T09:56:49;101597.75;;;24.36;67.98
57948;BME280;43754;56.992;24.292;2022-07-19T09:59:23;101603.09;;;23.98;68.35
57948;BME280;43754;56.992;24.292;2022-07-19T10:01:56;101599.59;;;23.86;69.67
57948;BME280;43754;56.992;24.292;2022-07-19T10:04:32;101600.91;;;24.28;70.45
57948;BME280;43754;56.992;24.292;2022-07-19T10:07:04;101596.34;;;25.10;66.76
57948;BME280;43754;56.992;24.292;2022-07-19T10:09:37;101598.63;;;25.62;65.12
57948;BME280;43754;56.992;24.292;2022-07-19T10:12:10;101585.50;;;25.69;64.72
57948;BME280;43754;56.992;24.292;2022-07-19T10:14:42;101588.38;;;25.79;64.92
57948;BME280;43754;56.992;24.292;2022-07-19T10:17:23;101585.56;;;25.74;65.76
57948;BME280;43754;56.992;24.292;2022-07-19T10:20:03;101577.75;;;25.93;63.90
57948;BME280;43754;56.992;24.292;2022-07-19T10:22:39;101572.13;;;26.09;63.82
57948;BME280;43754;56.992;24.292;2022-07-19T10:25:13;101570.44;;;26.35;62.27
57948;BME280;43754;56.992;24.292;2022-07-19T10:27:47;101557.72;;;26.24;61.02
57948;BME280;43754;56.992;24.292;2022-07-19T10:30:24;101562.91;;;26.21;61.54
57948;BME280;43754;56.992;24.292;2022-07-19T10:32:56;101563.25;;;25.97;62.24
57948;BME280;43754;56.992;24.292;2022-07-19T10:35:30;101571.31;;;25.77;62.82
57948;BME280;43754;56.992;24.292;2022-07-19T10:38:10;101564.06;;;25.66;62.51
57948;BME280;43754;56.992;24.292;2022-07-19T10:40:43;101569.97;;;25.53;62.33
57948;BME280;43754;56.992;24.292;2022-07-19T10:43:16;101562.34;;;25.38;63.56
57948;BME280;43754;56.992;24.292;2022-07-19T10:46:08;101562.75;;;25.74;61.73
57948;BME280;43754;56.992;24.292;2022-07-19T10:48:43;101563.31;;;25.49;61.52
57948;BME280;43754;56.992;24.292;2022-07-19T10:51:29;101569.13;;;25.31;62.62
57948;BME280;43754;56.992;24.292;2022-07-19T10:54:05;101573.56;;;25.10;63.91
57948;BME280;43754;56.992;24.292;2022-07-19T10:56:57;101569.03;;;24.99;63.86
57948;BME280;43754;56.992;24.292;2022-07-19T10:59:35;101570.97;;;24.82;64.25
57948;BME280;43754;56.992;24.292;2022-07-19T11:02:22;101570.34;;;24.74;64.66
57948;BME280;43754;56.992;24.292;2022-07-19T11:05:21;101569.69;;;24.67;64.73
57948;BME280;43754;56.992;24.292;2022-07-19T11:07:57;101577.53;;;24.59;65.93
57948;BME280;43754;56.992;24.292;2022-07-19T11:10:30;101573.81;;;24.48;65.98
57948;BME280;43754;56.992;24.292;2022-07-19T11:13:02;101575.81;;;24.36;67.16
57948;BME280;43754;56.992;24.292;2022-07-19T11:15:34;101575.66;;;24.26;67.74
57948;BME280;43754;56.992;24.292;2022-07-19T11:18:11;101574.44;;;24.17;68.57
57948;BME280;43754;56.992;24.292;2022-07-19T11:20:43;101575.84;;;24.19;70.00
57948;BME280;43754;56.992;24.292;2022-07-19T11:23:19;101578.81;;;24.18;71.09
57948;BME280;43754;56.992;24.292;2022-07-19T11:26:05;101575.66;;;24.26;70.71
57948;BME280;43754;56.992;24.292;2022-07-19T11:28:39;101581.22;;;24.31;71.00
57948;BME280;43754;56.992;24.292;2022-07-19T11:31:14;101581.06;;;24.21;73.09
57948;BME280;43754;56.992;24.292;2022-07-19T11:33:48;101574.69;;;24.70;74.80
57948;BME280;43754;56.992;24.292;2022-07-19T11:36:20;101578.09;;;25.21;70.94
57948;BME280;43754;56.992;24.292;2022-07-19T11:38:55;101573.09;;;25.61;66.86
57948;BME280;43754;56.992;24.292;2022-07-19T11:41:28;101561.91;;;26.00;64.31
57948;BME280;43754;56.992;24.292;2022-07-19T11:44:03;101565.38;;;26.22;64.02
57948;BME280;43754;56.992;24.292;2022-07-19T11:46:37;101564.72;;;26.42;62.60
57948;BME280;43754;56.992;24.292;2022-07-19T11:49:10;101568.75;;;26.71;60.79
57948;BME280;43754;56.992;24.292;2022-07-19T11:51:44;101572.19;;;26.46;60.64
57948;BME280;43754;56.992;24.292;2022-07-19T11:54:18;101568.72;;;26.24;61.56
57948;BME280;43754;56.992;24.292;2022-07-19T11:56:50;101565.97;;;26.24;61.17
57948;BME280;43754;56.992;24.292;2022-07-19T11:59:22;101571.56;;;26.07;61.63
57948;BME280;43754;56.992;24.292;2022-07-19T12:01:55;101570.56;;;25.87;62.18
57948;BME280;43754;56.992;24.292;2022-07-19T12:04:36;101569.31;;;25.99;62.58
57948;BME280;43754;56.992;24.292;2022-07-19T12:07:08;101562.44;;;26.02;62.54
57948;BME280;43754;56.992;24.292;2022-07-19T12:09:42;101572.88;;;26.00;61.96
57948;BME280;43754;56.992;24.292;2022-07-19T12:12:15;101568.06;;;25.85;62.58
57948;BME280;43754;56.992;24.292;2022-07-19T12:14:48;101576.44;;;25.69;61.83
57948;BME280;43754;56.992;24.292;2022-07-19T12:17:21;101574.81;;;25.46;63.28
57948;BME280;43754;56.992;24.292;2022-07-19T12:20:08;101578.63;;;25.45;65.14
57948;BME280;43754;56.992;24.292;2022-07-19T12:23:11;101569.63;;;25.49;63.57
57948;BME280;43754;56.992;24.292;2022-07-19T12:25:45;101572.84;;;25.41;64.13
57948;BME280;43754;56.992;24.292;2022-07-19T12:28:25;101571.78;;;25.47;64.96
57948;BME280;43754;56.992;24.292;2022-07-19T12:31:01;101570.03;;;25.58;64.68
57948;BME280;43754;56.992;24.292;2022-07-19T12:33:34;101571.41;;;25.60;63.51
57948;BME280;43754;56.992;24.292;2022-07-19T12:36:06;101565.41;;;25.63;63.99
57948;BME280;43754;56.992;24.292;2022-07-19T12:38:39;101575.06;;;25.44;64.64
57948;BME280;43754;56.992;24.292;2022-07-19T12:41:14;101570.50;;;25.28;64.49
57948;BME280;43754;56.992;24.292;2022-07-19T12:43:46;101573.31;;;25.11;63.67
57948;BME280;43754;56.992;24.292;2022-07-19T12:46:18;101570.81;;;24.88;65.18
57948;BME280;43754;56.992;24.292;2022-07-19T12:48:50;101570.97;;;24.82;66.19
57948;BME280;43754;56.992;24.292;2022-07-19T12:51:22;101570.19;;;24.64;65.92
57948;BME280;43754;56.992;24.292;2022-07-19T12:53:55;101563.09;;;24.47;66.82
57948;BME280;43754;56.992;24.292;2022-07-19T12:56:28;101574.56;;;24.27;67.69
57948;BME280;43754;56.992;24.292;2022-07-19T12:59:00;101571.28;;;24.25;68.43
57948;BME280;43754;56.992;24.292;2022-07-19T13:01:51;101568.66;;;24.02;67.80
57948;BME280;43754;56.992;24.292;2022-07-19T13:04:24;101579.28;;;23.98;68.44
57948;BME280;43754;56.992;24.292;2022-07-19T13:06:56;101566.97;;;23.84;66.94
57948;BME280;43754;56.992;24.292;2022-07-19T13:09:28;101574.94;;;23.69;68.11
57948;BME280;43754;56.992;24.292;2022-07-19T13:12:03;101572.94;;;23.64;69.81